Time;durP1;ratioP1;P1;durP2;ratioP2;P2;SDS_P1;SDS_P2;PMS_P1;PMS_P2;Temp;Humidity;BMP_temperature;BMP_pressure;BME280_temperature;BME280_humidity;BME280_pressure;Samples;Min_cycle;Max_cycle;Signal;HPM_P1;HPM_P2
2022/04/14 00:00:46;;;;;;;4.07;1.20;;;19.80;56.40;;;;;;4335608;33;20108;-70
2022/04/14 00:03:13;;;;;;;3.78;1.30;;;19.80;56.50;;;;;;4316190;33;20104;-70
2022/04/14 00:05:39;;;;;;;3.10;1.00;;;19.80;56.40;;;;;;4312069;33;20088;-70
2022/04/14 00:08:05;;;;;;;4.20;0.90;;;19.80;56.40;;;;;;4311558;33;20061;-70
2022/04/14 00:10:31;;;;;;;5.43;1.20;;;19.80;56.40;;;;;;4312119;33;20085;-70
2022/04/14 00:12:56;;;;;;;4.25;1.00;;;19.80;56.40;;;;;;4312225;33;20074;-70
2022/04/14 00:15:22;;;;;;;3.90;0.88;;;19.70;56.30;;;;;;4310679;33;20493;-70
2022/04/14 00:17:48;;;;;;;4.55;1.30;;;19.80;56.40;;;;;;4311003;33;20069;-70
2022/04/14 00:20:14;;;;;;;5.43;1.42;;;19.70;56.30;;;;;;4310416;33;20309;-70
2022/04/14 00:22:40;;;;;;;1.75;0.82;;;19.70;56.30;;;;;;4311815;33;20128;-70
2022/04/14 00:25:06;;;;;;;2.63;0.80;;;19.70;56.30;;;;;;4311720;33;20128;-70
2022/04/14 00:27:32;;;;;;;6.38;1.17;;;19.70;56.30;;;;;;4311768;33;20132;-70
2022/04/14 00:29:58;;;;;;;2.40;0.88;;;19.70;56.30;;;;;;4311490;33;20103;-70
2022/04/14 00:32:24;;;;;;;3.53;0.98;;;19.70;56.30;;;;;;4311791;33;20120;-70
2022/04/14 00:34:49;;;;;;;2.85;1.00;;;19.70;56.20;;;;;;4311772;33;20107;-70
2022/04/14 00:37:17;;;;;;;2.33;1.00;;;19.70;56.20;;;;;;4298679;33;20120;-70
2022/04/14 00:39:44;;;;;;;4.78;1.30;;;19.70;56.20;;;;;;4310497;33;20501;-70
2022/04/14 00:42:10;;;;;;;3.50;0.98;;;19.70;56.20;;;;;;4311786;33;20111;-70
2022/04/14 00:44:36;;;;;;;3.47;1.30;;;19.70;56.20;;;;;;4310677;33;20101;-70
2022/04/14 00:47:03;;;;;;;3.42;1.10;;;19.70;56.20;;;;;;4311402;33;20085;-69
2022/04/14 00:49:29;;;;;;;3.83;0.93;;;19.60;56.10;;;;;;4311303;33;20081;-73
2022/04/14 00:51:55;;;;;;;3.85;1.23;;;19.60;56.10;;;;;;4311428;33;20091;-70
2022/04/14 00:54:21;;;;;;;3.33;1.00;;;19.60;56.00;;;;;;4311589;33;20136;-70
2022/04/14 00:56:47;;;;;;;2.05;0.80;;;19.60;56.00;;;;;;4311241;33;20087;-70
2022/04/14 00:59:14;;;;;;;2.85;0.80;;;19.60;56.00;;;;;;4311499;33;20236;-70
2022/04/14 01:01:40;;;;;;;2.17;1.00;;;19.60;55.90;;;;;;4311300;33;20605;-70
2022/04/14 01:04:08;;;;;;;5.10;1.05;;;19.60;55.90;;;;;;4311262;33;20073;-70
2022/04/14 01:06:37;;;;;;;4.20;1.05;;;19.60;55.90;;;;;;4311481;33;20125;-70
2022/04/14 01:09:19;;;;;;;2.97;0.98;;;19.60;55.90;;;;;;4311505;33;20187;-70
2022/04/14 01:11:55;;;;;;;4.53;1.20;;;19.60;55.90;;;;;;4311052;33;20160;-70
2022/04/14 01:14:33;;;;;;;5.30;1.00;;;19.60;55.90;;;;;;4311461;33;20084;-70
2022/04/14 01:17:02;;;;;;;2.58;0.75;;;19.60;55.90;;;;;;4311305;33;20161;-70
2022/04/14 01:19:28;;;;;;;3.38;1.05;;;19.60;55.90;;;;;;4311252;33;20226;-69
2022/04/14 01:22:05;;;;;;;2.22;0.90;;;19.60;55.90;;;;;;4310529;33;20120;-70
2022/04/14 01:24:31;;;;;;;2.72;0.88;;;19.50;55.80;;;;;;4311277;33;20086;-70
2022/04/14 01:26:59;;;;;;;2.53;0.90;;;19.50;55.80;;;;;;4311157;33;20096;-68
2022/04/14 01:29:26;;;;;;;3.90;1.00;;;19.50;55.80;;;;;;4310952;33;20073;-70
2022/04/14 01:31:54;;;;;;;2.42;1.00;;;19.60;55.90;;;;;;4311052;33;20541;-70
2022/04/14 01:34:19;;;;;;;2.78;0.90;;;19.50;55.80;;;;;;4297999;33;20107;-69
2022/04/14 01:36:46;;;;;;;1.73;0.90;;;19.50;55.80;;;;;;4297623;33;20081;-70
2022/04/14 01:39:13;;;;;;;3.25;0.90;;;19.50;55.80;;;;;;4311000;33;20099;-70
2022/04/14 01:41:39;;;;;;;3.30;0.88;;;19.50;55.80;;;;;;4310904;33;20431;-71
2022/04/14 01:44:06;;;;;;;2.78;0.90;;;19.50;55.80;;;;;;4310561;33;20497;-70
2022/04/14 01:46:32;;;;;;;1.88;0.98;;;19.50;55.80;;;;;;4313683;33;20081;-70
2022/04/14 01:49:01;;;;;;;2.78;1.05;;;19.50;55.80;;;;;;4306670;33;20065;-70
2022/04/14 01:51:27;;;;;;;2.72;0.80;;;19.50;55.80;;;;;;4310007;33;20073;-70
2022/04/14 01:53:53;;;;;;;2.20;1.10;;;19.50;55.80;;;;;;4310780;33;20518;-70
2022/04/14 01:56:21;;;;;;;2.78;1.23;;;19.50;55.80;;;;;;4309234;33;20095;-70
2022/04/14 01:58:52;;;;;;;1.80;0.70;;;19.50;55.80;;;;;;4310789;33;20073;-69
2022/04/14 02:01:20;;;;;;;2.33;0.93;;;19.50;55.70;;;;;;4310732;33;20519;-69
2022/04/14 02:03:46;;;;;;;3.40;0.95;;;19.50;55.80;;;;;;4310558;33;20108;-70
2022/04/14 02:06:11;;;;;;;1.92;0.85;;;19.50;55.70;;;;;;4310623;33;20113;-70
2022/04/14 02:08:37;;;;;;;3.25;1.17;;;19.50;55.70;;;;;;4310514;33;20121;-70
2022/04/14 02:11:04;;;;;;;2.47;0.93;;;19.50;55.70;;;;;;4310513;33;20181;-70
2022/04/14 02:13:31;;;;;;;2.85;0.80;;;19.40;55.60;;;;;;4297105;33;20165;-70
2022/04/14 02:15:57;;;;;;;1.25;0.65;;;19.50;55.70;;;;;;4285338;33;20089;-70
2022/04/14 02:18:23;;;;;;;2.58;0.80;;;19.40;55.60;;;;;;4310381;33;20422;-70
2022/04/14 02:20:48;;;;;;;2.40;0.80;;;19.40;55.60;;;;;;4296897;33;20101;-70
2022/04/14 02:23:14;;;;;;;2.03;0.82;;;19.40;55.60;;;;;;4309399;33;20147;-70
2022/04/14 02:25:40;;;;;;;2.45;0.90;;;19.40;55.60;;;;;;4310237;33;20069;-70
2022/04/14 02:28:06;;;;;;;2.42;0.85;;;19.40;55.60;;;;;;4297208;33;20088;-70
2022/04/14 02:30:35;;;;;;;2.50;0.70;;;19.40;55.60;;;;;;4297165;33;20183;-70
2022/04/14 02:33:02;;;;;;;3.97;1.15;;;19.40;55.60;;;;;;4310200;33;20194;-70
2022/04/14 02:35:28;;;;;;;2.28;0.80;;;19.40;55.60;;;;;;4310161;33;20089;-70
2022/04/14 02:37:56;;;;;;;1.30;0.70;;;19.40;55.60;;;;;;4310113;33;20084;-70
2022/04/14 02:40:24;;;;;;;2.00;0.60;;;19.40;55.60;;;;;;4308999;33;20093;-69
2022/04/14 02:42:54;;;;;;;2.15;0.80;;;19.40;55.60;;;;;;4310144;33;20087;-70
2022/04/14 02:45:25;;;;;;;2.17;0.80;;;19.40;55.60;;;;;;4308938;33;20169;-70
2022/04/14 02:47:51;;;;;;;1.58;0.80;;;19.40;55.50;;;;;;4310140;33;20523;-70
2022/04/14 02:50:19;;;;;;;2.67;0.82;;;19.40;55.50;;;;;;4309759;33;20604;-69
2022/04/14 02:52:45;;;;;;;1.38;0.70;;;19.40;55.50;;;;;;4310010;33;20132;-70
2022/04/14 02:55:11;;;;;;;1.92;0.73;;;19.40;55.50;;;;;;4309788;33;20100;-70
2022/04/14 02:57:37;;;;;;;2.92;0.70;;;19.40;55.50;;;;;;4296322;33;20603;-70
2022/04/14 03:00:09;;;;;;;1.92;0.85;;;19.40;55.50;;;;;;4309812;33;20525;-70
2022/04/14 03:02:36;;;;;;;2.42;0.90;;;19.40;55.50;;;;;;4310158;33;20499;-69
2022/04/14 03:05:03;;;;;;;1.40;0.63;;;19.40;55.60;;;;;;4310088;33;20085;-69
2022/04/14 03:07:30;;;;;;;1.58;0.70;;;19.30;55.40;;;;;;4309683;33;20100;-70
2022/04/14 03:09:56;;;;;;;1.67;0.47;;;19.30;55.40;;;;;;4309792;33;20163;-70
2022/04/14 03:12:22;;;;;;;2.28;0.70;;;19.30;55.40;;;;;;4309757;33;20239;-70
2022/04/14 03:14:48;;;;;;;2.00;0.60;;;19.40;55.50;;;;;;4309630;33;20089;-70
2022/04/14 03:17:15;;;;;;;3.13;0.75;;;19.30;55.40;;;;;;4309417;33;20578;-70
2022/04/14 03:19:40;;;;;;;1.60;0.70;;;19.30;55.40;;;;;;4309639;33;20399;-73
2022/04/14 03:22:06;;;;;;;3.35;0.80;;;19.30;55.40;;;;;;4309851;33;20073;-70
2022/04/14 03:24:32;;;;;;;2.30;1.00;;;19.30;55.40;;;;;;4309757;33;20069;-70
2022/04/14 03:26:58;;;;;;;1.52;0.60;;;19.30;55.40;;;;;;4309543;33;20231;-70
2022/04/14 03:29:24;;;;;;;0.88;0.60;;;19.30;55.40;;;;;;4309631;33;20092;-70
2022/04/14 03:31:50;;;;;;;1.38;0.82;;;19.30;55.40;;;;;;4309643;33;20215;-69
2022/04/14 03:34:15;;;;;;;1.60;0.88;;;19.30;55.40;;;;;;4309660;33;20223;-69
2022/04/14 03:36:41;;;;;;;1.23;0.60;;;19.30;55.40;;;;;;4309792;33;20079;-69
2022/04/14 03:39:07;;;;;;;2.10;0.73;;;19.30;55.40;;;;;;4309680;33;20065;-70
2022/04/14 03:41:33;;;;;;;1.45;0.70;;;19.30;55.40;;;;;;4309690;33;20096;-69
2022/04/14 03:43:59;;;;;;;1.77;0.75;;;19.30;55.40;;;;;;4296322;33;20081;-70
2022/04/14 03:46:25;;;;;;;1.25;0.63;;;19.30;55.40;;;;;;4296277;33;20162;-70
2022/04/14 03:48:54;;;;;;;2.50;0.90;;;19.20;55.30;;;;;;4296407;33;20105;-69
2022/04/14 03:51:20;;;;;;;1.73;0.57;;;19.20;55.30;;;;;;4308951;33;20174;-68
2022/04/14 03:53:45;;;;;;;3.33;0.90;;;19.20;55.30;;;;;;4296177;33;20089;-70
2022/04/14 03:56:11;;;;;;;3.20;0.80;;;19.20;55.30;;;;;;4296090;33;20085;-70
2022/04/14 03:58:37;;;;;;;1.23;0.68;;;19.20;55.30;;;;;;4309468;33;20124;-69
2022/04/14 04:01:03;;;;;;;1.55;0.75;;;19.20;55.30;;;;;;4296121;33;20065;-70
2022/04/14 04:03:30;;;;;;;1.77;0.65;;;19.20;55.40;;;;;;4309656;33;20084;-70
2022/04/14 04:05:55;;;;;;;1.83;0.70;;;19.20;55.40;;;;;;4309422;33;20108;-70
2022/04/14 04:08:22;;;;;;;1.35;0.63;;;19.20;55.30;;;;;;4297526;33;20408;-70
2022/04/14 04:10:48;;;;;;;1.60;0.60;;;19.20;55.30;;;;;;4312148;33;20074;-70
2022/04/14 04:13:13;;;;;;;1.58;0.65;;;19.20;55.30;;;;;;4299029;33;20149;-70
2022/04/14 04:15:39;;;;;;;1.33;0.70;;;19.20;55.30;;;;;;4298220;33;20065;-70
2022/04/14 04:18:06;;;;;;;1.77;0.90;;;19.20;55.30;;;;;;4311210;33;20239;-70
2022/04/14 04:20:32;;;;;;;1.92;0.73;;;19.20;55.30;;;;;;4297731;33;20087;-70
2022/04/14 04:22:58;;;;;;;1.48;0.70;;;19.20;55.30;;;;;;4310132;33;20147;-70
2022/04/14 04:25:24;;;;;;;1.55;0.57;;;19.20;55.20;;;;;;4310802;33;20215;-70
2022/04/14 04:27:50;;;;;;;2.28;0.63;;;19.10;55.20;;;;;;4311860;33;20073;-70
2022/04/14 04:30:16;;;;;;;1.73;0.63;;;19.10;55.20;;;;;;4311890;33;20174;-70
2022/04/14 04:32:42;;;;;;;1.30;0.70;;;19.10;55.20;;;;;;4311934;33;20077;-70
2022/04/14 04:35:09;;;;;;;0.95;0.60;;;19.20;55.30;;;;;;4311747;33;20085;-70
2022/04/14 04:37:35;;;;;;;1.27;0.60;;;19.10;55.20;;;;;;4311582;33;20326;-70
2022/04/14 04:40:01;;;;;;;1.42;0.50;;;19.20;55.30;;;;;;4311775;33;20281;-70
2022/04/14 04:42:27;;;;;;;1.35;0.60;;;19.10;55.20;;;;;;4298865;33;20415;-70
2022/04/14 04:44:53;;;;;;;1.67;0.70;;;19.10;55.20;;;;;;4311637;33;20519;-70
2022/04/14 04:47:20;;;;;;;5.18;0.70;;;19.10;55.20;;;;;;4298694;33;20091;-70
2022/04/14 04:49:47;;;;;;;1.88;0.68;;;19.10;55.20;;;;;;4311499;33;20553;-73
2022/04/14 04:52:13;;;;;;;2.55;0.75;;;19.10;55.20;;;;;;4311764;33;20537;-70
2022/04/14 04:54:39;;;;;;;3.55;0.73;;;19.10;55.30;;;;;;4310407;33;20645;-70
2022/04/14 04:57:05;;;;;;;1.77;0.75;;;19.10;55.20;;;;;;4310953;33;20209;-70
2022/04/14 04:59:31;;;;;;;1.38;0.70;;;19.10;55.10;;;;;;4311527;33;20066;-70
2022/04/14 05:01:57;;;;;;;2.22;0.50;;;19.10;55.20;;;;;;4298457;33;20084;-70
2022/04/14 05:04:23;;;;;;;0.85;0.50;;;19.10;55.10;;;;;;4311325;33;20107;-70
2022/04/14 05:06:49;;;;;;;0.77;0.43;;;19.10;55.20;;;;;;4311423;33;20077;-70
2022/04/14 05:09:16;;;;;;;1.08;0.52;;;19.10;55.10;;;;;;4311043;33;20128;-70
2022/04/14 05:11:42;;;;;;;1.65;0.70;;;19.10;55.10;;;;;;4311010;33;20081;-70
2022/04/14 05:14:09;;;;;;;0.82;0.60;;;19.10;55.20;;;;;;4311189;33;20081;-70
2022/04/14 05:16:35;;;;;;;1.67;0.50;;;19.10;55.10;;;;;;4309924;33;20112;-70
2022/04/14 05:19:01;;;;;;;1.52;0.57;;;19.00;55.10;;;;;;4310628;33;20085;-70
2022/04/14 05:21:27;;;;;;;1.02;0.57;;;19.00;55.10;;;;;;4310857;33;20604;-70
2022/04/14 05:23:53;;;;;;;1.13;0.70;;;19.10;55.10;;;;;;4311004;33;20091;-70
2022/04/14 05:26:19;;;;;;;1.48;0.50;;;19.10;55.20;;;;;;4310051;33;20101;-70
2022/04/14 05:28:45;;;;;;;1.13;0.52;;;19.10;55.10;;;;;;4310152;33;20183;-70
2022/04/14 05:31:11;;;;;;;1.10;0.50;;;19.10;55.10;;;;;;4311190;33;20085;-70
2022/04/14 05:33:37;;;;;;;1.15;0.70;;;19.00;55.10;;;;;;4311082;33;20169;-70
2022/04/14 05:36:03;;;;;;;1.15;0.68;;;19.00;55.10;;;;;;4310737;33;20607;-70
2022/04/14 05:38:29;;;;;;;1.58;0.70;;;19.00;55.10;;;;;;4297722;33;20365;-69
2022/04/14 05:40:55;;;;;;;1.63;0.60;;;19.00;55.10;;;;;;4309835;33;20553;-70
2022/04/14 05:43:27;;;;;;;1.23;0.70;;;19.00;55.10;;;;;;4311094;33;20103;-70
2022/04/14 05:45:54;;;;;;;1.08;0.60;;;19.00;55.10;;;;;;4309690;33;20104;-69
2022/04/14 05:48:20;;;;;;;1.13;0.47;;;19.00;55.10;;;;;;4310850;33;20635;-69
2022/04/14 05:50:49;;;;;;;2.63;0.63;;;19.00;55.10;;;;;;4309182;33;20168;-69
2022/04/14 05:53:16;;;;;;;0.98;0.70;;;19.00;55.10;;;;;;4310677;33;20450;-70
2022/04/14 05:55:44;;;;;;;0.95;0.70;;;19.00;55.20;;;;;;4309497;33;20211;-70
2022/04/14 05:58:11;;;;;;;1.67;0.93;;;19.00;55.20;;;;;;4310666;33;20089;-69
2022/04/14 06:00:36;;;;;;;1.65;0.70;;;19.00;55.10;;;;;;4309470;33;20098;-70
2022/04/14 06:03:02;;;;;;;2.00;0.50;;;19.00;55.20;;;;;;4310653;33;20572;-70
2022/04/14 06:05:31;;;;;;;1.50;0.70;;;19.00;55.10;;;;;;4310707;33;20095;-69
2022/04/14 06:07:57;;;;;;;1.23;0.63;;;19.00;55.20;;;;;;4308909;33;20081;-69
2022/04/14 06:10:23;;;;;;;1.58;0.73;;;19.00;55.20;;;;;;4310205;33;20491;-69
2022/04/14 06:12:50;;;;;;;2.03;0.82;;;19.00;55.20;;;;;;4309215;33;20093;-69
2022/04/14 06:15:16;;;;;;;0.55;0.50;;;19.00;55.20;;;;;;4310104;33;20109;-69
2022/04/14 06:17:43;;;;;;;1.50;0.70;;;19.00;55.10;;;;;;4310422;33;20298;-70
2022/04/14 06:20:12;;;;;;;1.45;0.75;;;19.00;55.10;;;;;;4309835;33;20128;-70
2022/04/14 06:22:40;;;;;;;2.65;0.70;;;19.00;55.10;;;;;;4310107;33;20101;-70
2022/04/14 06:25:12;;;;;;;1.30;0.50;;;19.00;55.10;;;;;;4310396;33;20117;-69
2022/04/14 06:27:42;;;;;;;0.93;0.65;;;19.00;55.20;;;;;;4309312;33;20089;-70
2022/04/14 06:30:13;;;;;;;1.60;0.70;;;19.00;55.20;;;;;;4310160;33;20147;-70
2022/04/14 06:32:39;;;;;;;1.27;0.73;;;19.00;55.10;;;;;;4297041;33;20151;-70
2022/04/14 06:35:07;;;;;;;1.35;0.70;;;19.00;55.10;;;;;;4309071;33;20117;-69
2022/04/14 06:37:34;;;;;;;2.10;0.75;;;19.00;55.10;;;;;;4296952;33;20088;-70
2022/04/14 06:40:00;;;;;;;1.70;0.60;;;19.00;55.10;;;;;;4309197;33;20073;-70
2022/04/14 06:42:26;;;;;;;1.67;0.70;;;19.00;55.10;;;;;;4310091;33;20677;-70
2022/04/14 06:44:56;;;;;;;1.50;0.70;;;19.00;55.10;;;;;;4309920;33;20118;-70
2022/04/14 06:47:22;;;;;;;0.95;0.80;;;19.00;55.10;;;;;;4309603;33;20075;-70
2022/04/14 06:49:48;;;;;;;1.67;0.50;;;19.00;55.10;;;;;;4309246;33;20125;-69
2022/04/14 06:52:14;;;;;;;0.70;0.63;;;19.10;55.10;;;;;;4312521;33;20214;-69
2022/04/14 06:54:40;;;;;;;1.33;0.73;;;19.10;55.10;;;;;;4310757;33;20079;-70
2022/04/14 06:57:06;;;;;;;1.30;0.80;;;19.10;55.00;;;;;;4308763;33;20143;-70
2022/04/14 06:59:31;;;;;;;1.42;0.70;;;19.10;55.00;;;;;;4308858;33;20484;-70
2022/04/14 07:01:57;;;;;;;1.02;0.63;;;19.10;55.00;;;;;;4308914;33;20173;-70
2022/04/14 07:04:24;;;;;;;1.55;0.80;;;19.10;55.00;;;;;;4311128;33;20092;-69
2022/04/14 07:06:50;;;;;;;1.48;0.70;;;19.10;55.00;;;;;;4295769;33;20084;-70
2022/04/14 07:09:17;;;;;;;1.65;0.70;;;19.10;54.90;;;;;;4309058;33;20423;-70
2022/04/14 07:11:43;;;;;;;4.10;0.63;;;19.10;54.90;;;;;;4310961;33;20169;-70
2022/04/14 07:14:09;;;;;;;1.13;0.65;;;19.10;54.80;;;;;;4307687;33;20065;-70
2022/04/14 07:16:35;;;;;;;3.17;1.40;;;19.20;55.00;;;;;;4309420;33;20089;-70
2022/04/14 07:19:01;;;;;;;2.95;1.58;;;19.10;55.00;;;;;;4296659;33;20092;-70
2022/04/14 07:21:26;;;;;;;4.63;1.85;;;19.20;55.10;;;;;;4308093;33;20407;-69
2022/04/14 07:23:52;;;;;;;3.42;2.13;;;19.20;55.20;;;;;;4308741;33;20074;-70
2022/04/14 07:26:18;;;;;;;4.35;2.53;;;19.20;55.30;;;;;;4308569;33;20468;-69
2022/04/14 07:28:44;;;;;;;7.05;3.10;;;19.20;55.50;;;;;;4308668;33;20077;-69
2022/04/14 07:31:10;;;;;;;6.47;3.40;;;19.30;55.80;;;;;;4309322;33;20088;-70
2022/04/14 07:33:36;;;;;;;7.43;3.38;;;19.30;56.00;;;;;;4309639;33;20138;-70
2022/04/14 07:36:03;;;;;;;9.68;3.30;;;19.30;56.20;;;;;;4309613;33;20101;-70
2022/04/14 07:38:29;;;;;;;7.80;3.38;;;19.40;56.30;;;;;;4308638;33;20077;-68
2022/04/14 07:40:57;;;;;;;6.30;3.38;;;19.40;56.20;;;;;;4296238;33;20654;-68
2022/04/14 07:43:24;;;;;;;6.13;3.70;;;19.40;57.20;;;;;;4311181;33;20385;-69
2022/04/14 07:45:50;;;;;;;6.57;4.28;;;19.40;56.20;;;;;;4311177;33;20479;-69
2022/04/14 07:48:22;;;;;;;6.85;3.85;;;19.50;56.40;;;;;;4312424;33;20589;-70
2022/04/14 07:50:49;;;;;;;9.23;4.07;;;19.50;56.40;;;;;;4321287;33;20168;-70
2022/04/14 07:53:15;;;;;;;7.10;3.90;;;19.50;56.40;;;;;;4313133;33;20096;-71
2022/04/14 07:55:41;;;;;;;6.05;3.70;;;19.60;56.40;;;;;;4326026;33;20069;-70
2022/04/14 07:58:07;;;;;;;5.57;4.00;;;19.60;56.40;;;;;;4326074;33;20139;-70
2022/04/14 08:00:35;;;;;;;9.02;4.47;;;19.60;56.40;;;;;;4326061;33;20092;-71
2022/04/14 08:03:02;;;;;;;6.78;4.03;;;19.70;56.40;;;;;;4326886;33;20234;-70
2022/04/14 08:05:31;;;;;;;7.22;4.10;;;19.70;56.40;;;;;;4326544;33;20096;-70
2022/04/14 08:07:58;;;;;;;6.70;3.97;;;19.70;56.40;;;;;;4313827;33;20218;-71
2022/04/14 08:10:24;;;;;;;6.63;3.88;;;19.80;56.40;;;;;;4313299;33;20081;-71
2022/04/14 08:12:50;;;;;;;7.43;4.03;;;19.80;56.40;;;;;;4326778;33;20360;-70
2022/04/14 08:15:16;;;;;;;9.63;4.22;;;19.80;56.40;;;;;;4326317;33;20113;-71
2022/04/14 08:17:43;;;;;;;9.85;5.13;;;19.90;56.40;;;;;;4326839;33;20079;-70
2022/04/14 08:20:11;;;;;;;6.85;4.20;;;19.90;56.50;;;;;;4312878;33;20085;-71
2022/04/14 08:22:47;;;;;;;12.32;4.30;;;19.90;56.50;;;;;;4326596;33;20077;-70
2022/04/14 08:25:15;;;;;;;5.88;4.43;;;19.90;56.50;;;;;;4326470;33;20085;-70
2022/04/14 08:27:41;;;;;;;6.80;4.97;;;20.00;56.40;;;;;;4326082;33;20132;-71
2022/04/14 08:30:07;;;;;;;9.85;4.82;;;20.00;56.50;;;;;;4324221;33;20103;-70
2022/04/14 08:32:35;;;;;;;9.02;5.18;;;20.00;56.50;;;;;;4326472;33;20114;-70
2022/04/14 08:35:02;;;;;;;6.43;4.45;;;20.00;56.50;;;;;;4326161;33;20081;-71
2022/04/14 08:37:29;;;;;;;10.35;4.68;;;20.00;56.50;;;;;;4325585;33;20084;-70
2022/04/14 08:39:56;;;;;;;10.60;5.05;;;20.00;56.40;;;;;;4325772;33;20065;-71
2022/04/14 08:42:26;;;;;;;8.77;4.85;;;20.00;56.50;;;;;;4326291;33;20085;-70
2022/04/14 08:45:00;;;;;;;8.13;4.90;;;20.10;56.40;;;;;;4313176;33;20113;-70
2022/04/14 08:47:29;;;;;;;8.23;4.25;;;20.00;56.40;;;;;;4326325;33;20238;-70
2022/04/14 08:49:57;;;;;;;9.13;5.30;;;20.10;56.40;;;;;;4326016;33;20080;-70
2022/04/14 08:52:27;;;;;;;6.03;4.45;;;20.10;56.30;;;;;;4325935;33;20098;-71
2022/04/14 08:54:56;;;;;;;6.38;4.43;;;20.10;56.30;;;;;;4324300;33;20072;-70
2022/04/14 08:57:24;;;;;;;7.03;4.60;;;20.10;56.20;;;;;;4325254;33;20147;-70
2022/04/14 08:59:50;;;;;;;7.82;4.63;;;20.10;56.20;;;;;;4323766;33;20080;-70
2022/04/14 09:02:23;;;;;;;6.82;4.60;;;20.10;56.20;;;;;;4325902;33;20458;-70
2022/04/14 09:04:49;;;;;;;6.30;4.28;;;20.20;56.10;;;;;;4326044;33;20091;-70
2022/04/14 09:07:16;;;;;;;6.50;4.15;;;20.20;56.10;;;;;;4325948;33;20095;-71
2022/04/14 09:09:43;;;;;;;5.80;4.03;;;20.20;56.10;;;;;;4325585;33;20085;-70
2022/04/14 09:12:09;;;;;;;6.30;4.53;;;20.20;56.00;;;;;;4312582;33;20081;-70
2022/04/14 09:14:37;;;;;;;5.70;3.83;;;20.20;55.90;;;;;;4325689;33;20100;-71
2022/04/14 09:17:07;;;;;;;7.97;4.10;;;20.20;55.90;;;;;;4324972;33;20085;-71
2022/04/14 09:19:35;;;;;;;5.93;3.63;;;20.20;56.00;;;;;;4325873;33;20395;-70
2022/04/14 09:22:09;;;;;;;9.55;4.00;;;20.20;55.90;;;;;;4323635;33;20109;-71
2022/04/14 09:24:55;;;;;;;7.60;4.00;;;20.20;55.90;;;;;;4313077;33;20422;-70
2022/04/14 09:27:34;;;;;;;9.95;4.07;;;20.30;55.90;;;;;;4310667;33;20089;-70
2022/04/14 09:30:03;;;;;;;5.40;3.25;;;20.30;55.80;;;;;;4310547;33;20077;-70
2022/04/14 09:32:37;;;;;;;7.25;3.80;;;20.30;55.70;;;;;;4310616;33;20514;-69
2022/04/14 09:35:06;;;;;;;7.97;4.53;;;20.30;55.70;;;;;;4313928;33;20081;-70
2022/04/14 09:37:33;;;;;;;8.05;4.10;;;20.30;55.70;;;;;;4324189;33;20092;-70
2022/04/14 09:40:08;;;;;;;7.53;4.40;;;20.30;55.70;;;;;;4324321;33;20112;-70
2022/04/14 09:42:36;;;;;;;8.23;3.95;;;20.30;55.70;;;;;;4324528;33;20089;-70
2022/04/14 09:45:22;;;;;;;9.23;3.30;;;20.30;55.80;;;;;;4324267;33;20088;-69
2022/04/14 09:47:49;;;;;;;7.53;4.18;;;20.30;55.90;;;;;;4324391;33;20072;-69
2022/04/14 09:50:39;;;;;;;8.52;3.55;;;20.30;55.80;;;;;;4324484;33;20222;-70
2022/04/14 09:53:07;;;;;;;6.88;3.58;;;20.30;55.90;;;;;;4311164;33;20077;-70
2022/04/14 09:55:35;;;;;;;7.15;3.65;;;20.30;55.80;;;;;;4324172;33;20547;-69
2022/04/14 09:58:12;;;;;;;9.20;3.75;;;20.30;55.70;;;;;;4324447;33;20073;-69
2022/04/14 10:00:49;;;;;;;4.65;3.53;;;20.30;55.70;;;;;;4324824;33;20226;-69
2022/04/14 10:03:20;;;;;;;7.13;3.38;;;20.30;55.70;;;;;;4324942;33;20169;-69
2022/04/14 10:05:48;;;;;;;7.78;3.28;;;20.30;55.60;;;;;;4324012;33;20089;-69
2022/04/14 10:08:14;;;;;;;5.93;2.72;;;20.30;55.60;;;;;;4324254;33;20085;-70
2022/04/14 10:10:43;;;;;;;4.80;2.80;;;20.30;55.60;;;;;;4324330;33;20085;-70
2022/04/14 10:13:11;;;;;;;9.35;3.10;;;20.40;55.60;;;;;;4324233;33;20084;-70
2022/04/14 10:15:39;;;;;;;5.65;3.20;;;20.30;55.60;;;;;;4323846;33;20139;-69
2022/04/14 10:18:07;;;;;;;10.23;3.03;;;20.40;55.60;;;;;;4318538;33;20113;-69
2022/04/14 10:20:38;;;;;;;6.43;3.08;;;20.40;55.50;;;;;;4309260;33;20083;-70
2022/04/14 10:23:04;;;;;;;5.35;2.97;;;20.40;55.50;;;;;;4309944;33;20096;-69
2022/04/14 10:25:32;;;;;;;4.32;2.85;;;20.40;55.40;;;;;;4309742;33;20101;-69
2022/04/14 10:27:59;;;;;;;5.20;2.92;;;20.40;55.40;;;;;;4309806;33;20527;-70
2022/04/14 10:30:26;;;;;;;6.40;2.90;;;20.30;55.30;;;;;;4309642;33;20087;-70
2022/04/14 10:32:56;;;;;;;7.00;3.00;;;20.30;55.30;;;;;;4309796;33;20188;-71
2022/04/14 10:35:28;;;;;;;6.40;2.95;;;20.40;55.30;;;;;;4310225;33;20089;-71
2022/04/14 10:38:22;;;;;;;5.80;2.83;;;20.30;55.20;;;;;;4296832;33;20085;-72
2022/04/14 10:41:02;;;;;;;7.28;3.20;;;20.30;55.20;;;;;;4309768;33;20081;-71
2022/04/14 10:43:31;;;;;;;7.82;3.05;;;20.30;55.20;;;;;;4310153;33;20073;-71
2022/04/14 10:45:59;;;;;;;7.68;2.92;;;20.30;55.20;;;;;;4309099;33;20081;-69
2022/04/14 10:48:36;;;;;;;7.85;2.90;;;20.30;55.20;;;;;;4310093;33;20107;-70
2022/04/14 10:51:25;;;;;;;6.72;3.15;;;20.30;55.20;;;;;;4310131;33;20081;-69
2022/04/14 10:54:10;;;;;;;5.75;2.88;;;20.30;55.20;;;;;;4309980;33;20662;-69
2022/04/14 10:56:45;;;;;;;5.38;2.58;;;20.30;55.20;;;;;;4308632;33;20133;-70
2022/04/14 10:59:14;;;;;;;5.57;2.55;;;20.30;55.20;;;;;;4310150;33;20069;-69
2022/04/14 11:01:46;;;;;;;4.40;2.40;;;20.30;55.20;;;;;;4310034;33;20089;-70
2022/04/14 11:04:32;;;;;;;8.20;2.80;;;20.30;55.20;;;;;;4309909;33;20170;-69
2022/04/14 11:07:11;;;;;;;7.47;2.63;;;20.30;55.10;;;;;;4309663;33;20081;-70
2022/04/14 11:12:18;;;;;;;7.97;2.40;;;20.30;55.20;;;;;;4323576;33;20294;-69
2022/04/14 11:15:00;;;;;;;4.68;2.13;;;20.30;55.10;;;;;;4323465;33;20516;-69
2022/04/14 11:17:38;;;;;;;6.70;2.33;;;20.30;55.00;;;;;;4323306;33;20120;-69
2022/04/14 11:20:18;;;;;;;5.32;2.15;;;20.30;55.10;;;;;;4323630;33;20604;-69
2022/04/14 11:23:24;;;;;;;4.13;2.17;;;20.30;55.00;;;;;;4323657;33;20418;-69
2022/04/14 11:26:07;;;;;;;8.90;2.50;;;20.30;54.90;;;;;;4300411;33;20602;-69
2022/04/14 11:28:39;;;;;;;3.33;2.08;;;20.30;55.00;;;;;;4310120;33;20173;-69
2022/04/14 11:31:05;;;;;;;6.57;2.05;;;20.30;54.90;;;;;;4323462;33;20152;-69
2022/04/14 11:33:35;;;;;;;3.38;1.88;;;20.30;54.80;;;;;;4323456;33;20193;-69
2022/04/14 11:36:16;;;;;;;4.10;1.98;;;20.30;54.80;;;;;;4323408;33;20431;-69
2022/04/14 11:38:57;;;;;;;7.55;2.15;;;20.30;54.70;;;;;;4310324;33;20076;-69
2022/04/14 11:41:40;;;;;;;5.80;2.40;;;20.30;54.80;;;;;;4323393;33;20554;-68
2022/04/14 11:44:10;;;;;;;3.63;2.17;;;20.30;54.80;;;;;;4323413;33;20407;-68
2022/04/14 11:46:39;;;;;;;5.07;2.22;;;20.30;54.80;;;;;;4322362;33;20087;-69
2022/04/14 11:49:06;;;;;;;6.47;2.28;;;20.30;54.80;;;;;;4323317;33;20144;-69
2022/04/14 11:51:32;;;;;;;7.50;2.70;;;20.30;54.70;;;;;;4323069;33;20085;-69
2022/04/14 11:53:58;;;;;;;7.72;2.83;;;20.30;54.70;;;;;;4323312;33;20077;-68
2022/04/14 11:56:25;;;;;;;6.15;2.33;;;20.30;54.70;;;;;;4322909;33;21416;-69
2022/04/14 11:58:52;;;;;;;6.53;2.55;;;20.30;54.70;;;;;;4323234;33;20072;-69
2022/04/14 12:01:18;;;;;;;4.82;2.28;;;20.30;54.70;;;;;;4323218;33;20506;-69
2022/04/14 12:03:44;;;;;;;4.97;2.15;;;20.30;54.60;;;;;;4323190;33;20132;-69
2022/04/14 12:06:14;;;;;;;6.95;2.40;;;20.30;54.60;;;;;;4310209;33;20088;-69
2022/04/14 12:08:40;;;;;;;6.15;2.35;;;20.30;54.60;;;;;;4323891;33;20203;-69
2022/04/14 12:11:14;;;;;;;8.80;2.58;;;20.30;54.60;;;;;;4323493;33;20143;-69
2022/04/14 12:13:40;;;;;;;5.40;2.17;;;20.30;54.60;;;;;;4323128;33;20599;-68
2022/04/14 12:16:08;;;;;;;5.35;2.22;;;20.30;54.70;;;;;;4323160;33;20072;-69
2022/04/14 12:18:35;;;;;;;7.22;2.20;;;20.30;54.70;;;;;;4323233;33;20084;-70
2022/04/14 12:21:02;;;;;;;4.43;2.00;;;20.30;54.70;;;;;;4323040;33;20135;-70
2022/04/14 12:23:29;;;;;;;7.10;1.90;;;20.30;54.70;;;;;;4323759;33;20132;-69
2022/04/14 12:25:56;;;;;;;6.63;2.35;;;20.30;54.70;;;;;;4323637;33;20099;-69
2022/04/14 12:28:22;;;;;;;5.88;1.88;;;20.30;54.70;;;;;;4324219;33;20423;-69
2022/04/14 12:30:48;;;;;;;5.38;2.00;;;20.20;54.60;;;;;;4326636;33;20077;-69
2022/04/14 12:33:14;;;;;;;8.93;2.00;;;20.20;54.60;;;;;;4313369;33;20073;-69
2022/04/14 12:35:44;;;;;;;6.78;2.30;;;20.20;54.60;;;;;;4326443;33;20103;-69
2022/04/14 12:38:21;;;;;;;6.88;2.10;;;20.20;54.70;;;;;;4326449;33;20116;-69
2022/04/14 12:40:57;;;;;;;4.75;1.80;;;20.20;54.60;;;;;;4326540;33;20124;-69
2022/04/14 12:43:26;;;;;;;5.65;2.33;;;20.20;54.60;;;;;;4326268;33;20073;-69
2022/04/14 12:45:52;;;;;;;4.18;1.77;;;20.20;54.60;;;;;;4326185;33;20549;-69
2022/04/14 12:48:35;;;;;;;4.05;1.70;;;20.20;54.60;;;;;;4326335;33;20085;-69
2022/04/14 12:51:01;;;;;;;4.15;1.50;;;20.10;54.40;;;;;;4325931;33;20087;-70
2022/04/14 12:53:27;;;;;;;2.70;1.27;;;20.10;54.40;;;;;;4326150;33;20241;-70